• Join FlightAware (Why Join?)
  • Login
  • US Flag 
01:47PM EDT


 

Airport Tracker/Info


-or-


 

Live Flight TrackerFlight Track Log ✈ TAM8009 ✈ 23-Oct-2013 ✈ SABE / AEP - SBGR / GRU

Flight Track Log - Related Links

Times and Time Zones

All times are in EDT time to prevent confusion due to time zone crossing. See the TAM8009 flight status page for this flight to view local times or setup timezone preferences in your user account.

Time Position Orientation Groundspeed Altitude Reporting Facility
EDT Latitude Longitude Course Direction KTS MPH feet Rate Location/Type
11:29AM -29.7954 -52.8369 46° Northeast  Level Estimated
11:30AM -29.7067 -52.7407 43° Northeast  Level Estimated
11:31AM -29.6178 -52.6446 43° Northeast  Level Estimated
11:32AM -29.5289 -52.5487 43° Northeast  Level Estimated
11:33AM -29.4399 -52.4530 43° Northeast  Level Estimated
11:34AM -29.3509 -52.3574 43° Northeast  Level Estimated
11:35AM -29.2618 -52.2620 43° Northeast  Level Estimated
11:36AM -29.1726 -52.1668 43° Northeast  Level Estimated
11:37AM -29.0833 -52.0718 43° Northeast  Level Estimated
11:38AM -28.9940 -51.9768 43° Northeast  Level Estimated
11:39AM -28.9046 -51.8821 43° Northeast  Level Estimated
11:40AM -28.8152 -51.7875 43° Northeast  Level Estimated
11:41AM -28.7257 -51.6931 43° Northeast  Level Estimated
11:42AM -28.6361 -51.5989 43° Northeast  Level Estimated
11:43AM -28.5465 -51.5048 43° Northeast  Level Estimated
11:44AM -28.4568 -51.4109 43° Northeast  Level Estimated
11:45AM -28.3670 -51.3171 43° Northeast  Level Estimated
11:46AM -28.2771 -51.2235 43° Northeast  Level Estimated
11:47AM -28.1872 -51.1300 43° Northeast  Level Estimated
11:48AM -28.0973 -51.0367 42° Northeast  Level Estimated
11:49AM -28.0072 -50.9436 42° Northeast  Level Estimated
11:50AM -27.9172 -50.8506 42° Northeast  Level Estimated
11:51AM -27.8270 -50.7578 42° Northeast  Level Estimated
11:52AM -27.7368 -50.6651 42° Northeast  Level Estimated
11:53AM -27.6465 -50.5726 42° Northeast  Level Estimated
11:54AM -27.5562 -50.4802 42° Northeast  Level Estimated
11:55AM -27.4658 -50.3880 42° Northeast  Level Estimated
11:56AM -27.3753 -50.2959 42° Northeast  Level Estimated
11:57AM -27.2848 -50.2040 42° Northeast  Level Estimated
11:58AM -27.1942 -50.1123 42° Northeast  Level Estimated
11:59AM -27.1036 -50.0206 42° Northeast  Level Estimated
12:00PM -27.0129 -49.9292 42° Northeast  Level Estimated
12:01PM -26.9221 -49.8378 42° Northeast  Level Estimated
12:02PM -26.8313 -49.7467 42° Northeast  Level Estimated
12:03PM -26.7404 -49.6556 42° Northeast  Level Estimated
12:04PM -26.6495 -49.5648 42° Northeast  Level Estimated
12:05PM -26.5585 -49.4740 42° Northeast  Level Estimated
12:06PM -26.4675 -49.3834 42° Northeast  Level Estimated
12:07PM -26.3764 -49.2930 42° Northeast  Level Estimated
12:08PM -26.2852 -49.2027 42° Northeast  Level Estimated
12:09PM -26.1940 -49.1125 42° Northeast  Level Estimated
12:10PM -26.1027 -49.0225 42° Northeast  Level Estimated
12:11PM -26.0114 -48.9326 42° Northeast  Level Estimated
12:12PM -25.9200 -48.8429 41° Northeast  Level Estimated
12:13PM -25.8286 -48.7533 41° Northeast  Level Estimated
12:14PM -25.7370 -48.6638 41° Northeast  Level Estimated
12:15PM -25.6455 -48.5745 41° Northeast  Level Estimated
12:16PM -25.5539 -48.4853 41° Northeast  Level Estimated
12:17PM -25.4622 -48.3962 41° Northeast  Level Estimated
12:18PM -25.3705 -48.3073 41° Northeast  Level Estimated
12:19PM -25.2788 -48.2185 41° Northeast  Level Estimated
12:20PM -25.1869 -48.1299 41° Northeast  Level Estimated
12:21PM -25.0951 -48.0413 41° Northeast  Level Estimated
12:22PM -25.0032 -47.9530 41° Northeast  Level Estimated
12:23PM -24.9112 -47.8647 41° Northeast  Level Estimated
12:24PM -24.8191 -47.7766 41° Northeast  Level Estimated
12:25PM -24.7271 -47.6886 41° Northeast  Level Estimated
12:26PM -24.6349 -47.6007 41° Northeast  Level Estimated
12:27PM -24.5427 -47.5130 41° Northeast  Level Estimated
12:28PM -24.4505 -47.4254 41° Northeast  Level Estimated
12:29PM -24.3582 -47.3379 41° Northeast  Level Estimated
12:30PM -24.2659 -47.2506 41° Northeast  Level Estimated
12:31PM -24.1735 -47.1634 41° Northeast  Level Estimated
12:32PM -24.0811 -47.0763 41° Northeast  Level Estimated
12:33PM -23.9886 -46.9893 41° Northeast  Level Estimated
12:34PM -23.8961 -46.9025 41° Northeast  Level Estimated
12:35PM -23.8035 -46.8158 41° Northeast  Level Estimated
12:36PM -23.7109 -46.7292 41° Northeast  Level Estimated
12:37PM -23.6182 -46.6427 41° Northeast  Level Estimated
12:38PM -23.5255 -46.5563 41° Northeast  Level Estimated
12:39PM -23.4327 -46.4701 40° Northeast  Level Estimated
12:40PM -23.4321 -46.4695 40° Northeast  Level Estimated
12:41PM -23.4321 -46.4695 350° North  Level Estimated
12:42PM -23.4321 -46.4695 350° North  Level Estimated
12:43PM -23.4321 -46.4695 350° North  Level Estimated
12:44PM -23.4321 -46.4695 350° North  Level Estimated
12:45PM -23.4321 -46.4695 350° North  Level Estimated
12:46PM -23.4321 -46.4695 350° North  Level Estimated
12:47PM -23.4321 -46.4695 350° North  Level Estimated
12:48PM -23.4321 -46.4695 350° North  Level Estimated
12:49PM -23.4321 -46.4695 350° North  Level Estimated
12:50PM -23.4321 -46.4695 350° North  Level Estimated
12:51PM -23.4321 -46.4695 350° North  Level Estimated
12:52PM -23.4321 -46.4695 350° North  Level Estimated
12:53PM -23.4321 -46.4695 350° North  Level Estimated
12:54PM -23.4321 -46.4695 350° North  Level Estimated
12:55PM -23.4321 -46.4695 350° North  Level Estimated